Decoded Metar for GCXO (TENERIFE in SPAIN) (IATA:TFN) | Meteo·Mobile Aviation Weather
aviador You're here:

GCXO Decoded Metar

TENERIFE in SPAIN
Report Time2019-03-21 15:30:00
UTC Time2019-03-21 15:47:05
Flight Rules vfr VFR
Wind130° at 08 kt
W.Decomp.*RWY 12: 7.7 kt HW 2.1 kt RCW
W.Rank130° ranks 8
Current wind is above 130° avg. (6.5)
Visibility9999 m
Phenomena:N/A
Clouds:Few 015 Hf
Expected CloudBase > 2,800 ft AGL from Temp-Dew spread
CeilingNone
Temp18°C (ISA +7)
Dew Point11°C (64% RH)
AAT15.5°C
QNH1017 hPa
Density Alt2,953 ft
Elevation2,073 ft
Report Wrong Elevation
Raw Report
GCXO 211530Z 13008KT 100V190 9999 FEW015 18/11 Q1017 NOSIG=

Extra information for GCXO:More info

Metar Taf Metar & Taf Last 4 Metars F.Rules Stats Wind Profile Meteogram Temp Stats Airport Information Weather charts Add Link Nearby VenuesMetar ALERT Operation Metar Decoded Social comments